Time;durP1;ratioP1;P1;durP2;ratioP2;P2;SDS_P1;SDS_P2;PMS_P1;PMS_P2;Temp;Humidity;BMP_temperature;BMP_pressure;BME280_temperature;BME280_humidity;BME280_pressure;Samples;Min_cycle;Max_cycle;Signal;HPM_P1;HPM_P2
2021/06/28 00:00:00;;;;;;;8.90;8.20;;;20.50;99.90;;;;;;5073842;28;20522;-72
2021/06/28 00:02:29;;;;;;;9.33;8.53;;;20.40;99.90;;;;;;5073859;28;20412;-72
2021/06/28 00:04:56;;;;;;;9.13;8.33;;;20.40;99.90;;;;;;5083477;28;20451;-73
2021/06/28 00:07:21;;;;;;;9.80;8.90;;;20.40;99.90;;;;;;5089783;28;20432;-73
2021/06/28 00:09:47;;;;;;;7.93;7.23;;;20.50;99.90;;;;;;5073267;28;20869;-73
2021/06/28 00:12:12;;;;;;;9.30;8.40;;;20.50;99.90;;;;;;5073735;28;20217;-73
2021/06/28 00:14:38;;;;;;;8.67;7.87;;;20.50;99.90;;;;;;5073215;28;20204;-73
2021/06/28 00:17:03;;;;;;;8.40;7.60;;;20.50;99.90;;;;;;5074329;28;20189;-73
2021/06/28 00:19:29;;;;;;;8.67;7.87;;;20.50;99.90;;;;;;5073215;28;20169;-73
2021/06/28 00:21:55;;;;;;;8.80;8.10;;;20.60;99.90;;;;;;5074263;28;20650;-73
2021/06/28 00:24:20;;;;;;;9.83;9.03;;;20.60;99.90;;;;;;5074697;28;20508;-73
2021/06/28 00:26:46;;;;;;;9.73;8.73;;;20.60;99.90;;;;;;5078358;28;20501;-73
2021/06/28 00:29:11;;;;;;;9.23;8.43;;;20.50;99.90;;;;;;5077468;28;20191;-73
2021/06/28 00:31:38;;;;;;;9.23;8.33;;;20.50;99.90;;;;;;5077666;28;20169;-73
2021/06/28 00:34:04;;;;;;;9.07;8.27;;;20.50;99.90;;;;;;5075460;28;20213;-73
2021/06/28 00:36:30;;;;;;;9.63;8.60;;;20.50;99.90;;;;;;5077330;28;20873;-73
2021/06/28 00:38:55;;;;;;;9.90;9.10;;;20.40;99.90;;;;;;5078054;28;20481;-73
2021/06/28 00:41:21;;;;;;;10.17;9.17;;;20.30;99.90;;;;;;5077089;28;20238;-73
2021/06/28 00:43:47;;;;;;;9.53;8.50;;;20.20;99.90;;;;;;5076559;28;20228;-73
2021/06/28 00:46:12;;;;;;;9.27;8.37;;;20.20;99.90;;;;;;5077213;28;20190;-73
2021/06/28 00:48:38;;;;;;;10.77;9.77;;;20.10;99.90;;;;;;5078159;28;20173;-73
2021/06/28 00:51:03;;;;;;;9.60;8.70;;;20.00;99.90;;;;;;5077053;28;20185;-73
2021/06/28 00:53:30;;;;;;;10.40;9.50;;;20.00;99.90;;;;;;5076517;28;20186;-74
2021/06/28 00:56:08;;;;;;;10.13;9.00;;;20.00;99.90;;;;;;5076695;28;20231;-73
2021/06/28 00:58:36;;;;;;;9.47;8.57;;;20.00;99.90;;;;;;5077913;28;20442;-73
2021/06/28 01:01:02;;;;;;;9.93;9.03;;;20.00;99.90;;;;;;5076966;28;20404;-73
2021/06/28 01:03:27;;;;;;;9.47;8.60;;;19.90;99.90;;;;;;5076603;28;20451;-73
2021/06/28 01:05:53;;;;;;;10.10;9.10;;;19.90;99.90;;;;;;5076255;28;20427;-73
2021/06/28 01:08:19;;;;;;;10.23;9.30;;;19.90;99.90;;;;;;5075160;28;20220;-73
2021/06/28 01:10:45;;;;;;;9.53;8.57;;;19.90;99.90;;;;;;5077595;28;20170;-73
2021/06/28 01:13:10;;;;;;;10.20;9.30;;;19.90;99.90;;;;;;5076511;28;20469;-73
2021/06/28 01:15:37;;;;;;;9.93;9.13;;;19.90;99.90;;;;;;5076785;28;20196;-73
2021/06/28 01:18:04;;;;;;;9.40;8.60;;;20.00;99.90;;;;;;5076458;28;20198;-73
2021/06/28 01:20:31;;;;;;;10.17;9.27;;;20.00;99.90;;;;;;5077184;28;20462;-73
2021/06/28 01:23:18;;;;;;;9.70;8.90;;;19.90;99.90;;;;;;5075872;28;20412;-73
2021/06/28 01:25:44;;;;;;;10.50;9.60;;;19.70;99.90;;;;;;5075748;28;20443;-73
2021/06/28 01:28:14;;;;;;;10.20;9.30;;;19.60;99.90;;;;;;5081269;28;20494;-73
2021/06/28 01:30:40;;;;;;;10.07;9.17;;;19.60;99.90;;;;;;5096904;28;20402;-73
2021/06/28 01:33:05;;;;;;;10.63;9.63;;;19.50;99.90;;;;;;5095227;28;20418;-73
2021/06/28 01:35:31;;;;;;;10.47;9.47;;;19.40;99.90;;;;;;5096010;28;20188;-73
2021/06/28 01:37:57;;;;;;;11.33;9.97;;;19.40;99.90;;;;;;5096546;28;20165;-73
2021/06/28 01:40:22;;;;;;;10.63;9.67;;;19.30;99.90;;;;;;5098426;28;20185;-73
2021/06/28 01:42:49;;;;;;;9.17;8.40;;;19.20;99.90;;;;;;5099068;28;20189;-74
2021/06/28 01:45:18;;;;;;;11.10;9.90;;;19.20;99.90;;;;;;5099389;28;20224;-73
2021/06/28 01:47:45;;;;;;;10.77;9.77;;;19.20;99.90;;;;;;5099927;28;20399;-73
2021/06/28 01:50:13;;;;;;;10.97;9.97;;;19.20;99.90;;;;;;5095218;28;20556;-73
2021/06/28 01:52:39;;;;;;;11.60;9.70;;;19.20;99.90;;;;;;5095599;28;20429;-73
2021/06/28 01:55:07;;;;;;;10.73;9.73;;;19.20;99.90;;;;;;5096082;28;20944;-73
2021/06/28 01:57:35;;;;;;;12.73;10.37;;;19.10;99.90;;;;;;5096313;28;20513;-73
2021/06/28 02:00:01;;;;;;;10.90;9.90;;;19.10;99.90;;;;;;5094518;28;20450;-73
2021/06/28 02:02:26;;;;;;;11.23;10.23;;;19.00;99.90;;;;;;5095629;28;20491;-73
2021/06/28 02:04:52;;;;;;;11.13;10.07;;;18.90;99.90;;;;;;5095928;28;20943;-73
2021/06/28 02:07:18;;;;;;;11.60;10.50;;;18.90;99.90;;;;;;5095899;28;20169;-73
2021/06/28 02:09:43;;;;;;;10.90;9.90;;;18.90;99.90;;;;;;5095961;28;20200;-73
2021/06/28 02:12:09;;;;;;;12.20;11.00;;;18.80;99.90;;;;;;5093442;28;20250;-73
2021/06/28 02:14:35;;;;;;;12.30;11.20;;;18.80;99.90;;;;;;5095227;28;20173;-73
2021/06/28 02:17:01;;;;;;;12.00;10.50;;;18.80;99.90;;;;;;5095773;28;20825;-73
2021/06/28 02:19:27;;;;;;;11.43;10.43;;;18.80;99.90;;;;;;5094652;28;20176;-73
2021/06/28 02:21:53;;;;;;;12.20;10.23;;;18.70;99.90;;;;;;5094176;28;20222;-73
2021/06/28 02:24:20;;;;;;;11.80;10.60;;;18.70;99.90;;;;;;5094516;28;20462;-73
2021/06/28 02:26:46;;;;;;;11.97;10.97;;;18.70;99.90;;;;;;5096250;28;20423;-73
2021/06/28 02:29:13;;;;;;;11.30;10.30;;;18.70;99.90;;;;;;5098802;28;20775;-73
2021/06/28 02:31:40;;;;;;;12.87;11.67;;;18.60;99.90;;;;;;5094198;28;20493;-73
2021/06/28 02:34:06;;;;;;;12.60;11.40;;;18.60;99.90;;;;;;5088333;28;20470;-72
2021/06/28 02:36:32;;;;;;;11.30;10.20;;;18.60;99.90;;;;;;5080302;28;20439;-72
2021/06/28 02:38:59;;;;;;;11.63;10.43;;;18.60;99.90;;;;;;5074851;28;20404;-72
2021/06/28 02:41:25;;;;;;;12.70;11.23;;;18.60;99.90;;;;;;5074985;28;20459;-72
2021/06/28 02:43:52;;;;;;;12.20;11.00;;;18.60;99.90;;;;;;5075780;28;20474;-73
2021/06/28 02:46:19;;;;;;;11.23;10.30;;;18.60;99.90;;;;;;5074926;28;20439;-72
2021/06/28 02:48:45;;;;;;;11.43;10.23;;;18.70;99.90;;;;;;5075162;28;20894;-72
2021/06/28 02:51:12;;;;;;;10.97;9.93;;;18.50;99.90;;;;;;5073815;28;20421;-72
2021/06/28 02:53:38;;;;;;;11.23;10.23;;;18.60;99.90;;;;;;5076370;28;20510;-72
2021/06/28 02:56:13;;;;;;;11.63;10.23;;;18.70;99.90;;;;;;5091685;28;20435;-72
2021/06/28 02:58:54;;;;;;;11.60;10.60;;;18.70;99.90;;;;;;5087185;28;20197;-72
2021/06/28 03:01:21;;;;;;;11.45;10.35;;;18.60;99.90;;;;;;5074403;28;20407;-72
2021/06/28 03:03:47;;;;;;;12.50;11.30;;;18.60;99.90;;;;;;5077533;28;20181;-72
2021/06/28 03:06:13;;;;;;;11.37;10.27;;;18.70;99.90;;;;;;5093585;28;20454;-72
2021/06/28 03:08:39;;;;;;;10.87;9.87;;;18.70;99.90;;;;;;5094857;28;20496;-72
2021/06/28 03:11:05;;;;;;;12.00;10.90;;;18.80;99.90;;;;;;5094801;28;20404;-72
2021/06/28 03:13:32;;;;;;;10.77;9.77;;;18.80;99.90;;;;;;5094587;28;20968;-72
2021/06/28 03:15:58;;;;;;;11.20;10.00;;;18.80;99.90;;;;;;5093517;28;20212;-72
2021/06/28 03:18:24;;;;;;;10.63;9.63;;;18.90;99.90;;;;;;5096001;28;20437;-73
2021/06/28 03:20:51;;;;;;;11.03;10.07;;;18.90;99.90;;;;;;5115391;28;20194;-72
2021/06/28 03:23:16;;;;;;;10.87;9.87;;;18.90;99.90;;;;;;5104471;28;20161;-72
2021/06/28 03:25:42;;;;;;;10.77;9.77;;;18.90;99.90;;;;;;5092415;28;20446;-73
2021/06/28 03:28:07;;;;;;;11.07;9.93;;;19.00;99.90;;;;;;5094399;28;20168;-72
2021/06/28 03:30:33;;;;;;;11.30;10.20;;;19.00;99.90;;;;;;5094847;28;20536;-71
2021/06/28 03:32:59;;;;;;;10.67;9.77;;;19.00;99.90;;;;;;5092387;28;20171;-75
2021/06/28 03:35:25;;;;;;;11.50;10.50;;;19.00;99.90;;;;;;5085363;28;20193;-73
2021/06/28 03:37:50;;;;;;;11.77;10.57;;;19.00;99.90;;;;;;5074167;28;20772;-73
2021/06/28 03:40:16;;;;;;;12.80;11.60;;;19.00;99.90;;;;;;5073635;28;20177;-73
2021/06/28 03:42:42;;;;;;;11.60;10.50;;;19.00;99.90;;;;;;5073813;28;20172;-72
2021/06/28 03:45:11;;;;;;;12.17;10.97;;;18.90;99.90;;;;;;5074071;28;20466;-72
2021/06/28 03:47:37;;;;;;;12.10;11.10;;;18.90;99.90;;;;;;5074694;28;20662;-72
2021/06/28 03:50:05;;;;;;;11.13;10.13;;;19.00;99.90;;;;;;5073937;28;20396;-72
2021/06/28 03:52:31;;;;;;;13.30;12.20;;;19.00;99.90;;;;;;5075921;28;20400;-72
2021/06/28 03:54:56;;;;;;;12.00;10.97;;;19.00;99.90;;;;;;5076510;28;20432;-72
2021/06/28 03:57:22;;;;;;;13.30;12.10;;;19.00;99.90;;;;;;5083451;28;20185;-72
2021/06/28 03:59:47;;;;;;;11.67;10.57;;;19.00;99.90;;;;;;5098198;28;20161;-72
2021/06/28 04:02:13;;;;;;;12.20;10.93;;;19.00;99.90;;;;;;5099902;28;20196;-72
2021/06/28 04:04:38;;;;;;;11.83;10.63;;;19.00;99.90;;;;;;5100494;28;20229;-73
2021/06/28 04:07:04;;;;;;;11.97;10.77;;;19.00;99.90;;;;;;5102282;28;20173;-73
2021/06/28 04:09:29;;;;;;;12.30;11.20;;;19.00;99.90;;;;;;5101436;28;20237;-72
2021/06/28 04:11:55;;;;;;;11.70;10.60;;;19.10;99.90;;;;;;5094720;28;20636;-72
2021/06/28 04:14:20;;;;;;;12.50;11.47;;;19.10;99.90;;;;;;5087707;28;20217;-73
2021/06/28 04:16:46;;;;;;;12.97;11.77;;;19.10;99.90;;;;;;5083617;28;20206;-72
2021/06/28 04:19:12;;;;;;;13.00;11.90;;;19.00;99.90;;;;;;5085642;28;20173;-72
2021/06/28 04:21:37;;;;;;;12.27;11.10;;;19.00;99.90;;;;;;5087667;28;20453;-73
2021/06/28 04:24:05;;;;;;;12.67;11.57;;;19.10;99.90;;;;;;5083747;28;20198;-72
2021/06/28 04:26:32;;;;;;;13.00;11.87;;;19.10;99.90;;;;;;5081532;28;20197;-72
2021/06/28 04:28:58;;;;;;;13.90;12.50;;;19.00;99.90;;;;;;5081567;28;20420;-73
2021/06/28 04:31:25;;;;;;;12.87;11.67;;;19.10;99.90;;;;;;5088646;28;20482;-73
2021/06/28 04:33:51;;;;;;;13.13;11.93;;;19.10;99.90;;;;;;5093443;28;20411;-72
2021/06/28 04:36:16;;;;;;;13.80;11.87;;;19.10;99.90;;;;;;5085546;28;20434;-72
2021/06/28 04:38:42;;;;;;;13.80;11.30;;;19.10;99.90;;;;;;5082550;28;20691;-72
2021/06/28 04:41:07;;;;;;;12.67;11.50;;;19.10;99.90;;;;;;5080481;28;20181;-72
2021/06/28 04:43:33;;;;;;;13.93;12.60;;;19.10;99.90;;;;;;5074735;28;20193;-72
2021/06/28 04:45:59;;;;;;;12.50;11.30;;;19.10;99.90;;;;;;5075973;28;20189;-73
2021/06/28 04:48:24;;;;;;;15.33;12.77;;;19.10;99.90;;;;;;5076012;28;20244;-72
2021/06/28 04:50:50;;;;;;;14.27;12.87;;;19.20;99.90;;;;;;5085165;28;20202;-72
2021/06/28 04:53:15;;;;;;;13.43;12.13;;;19.10;99.90;;;;;;5096460;28;20169;-72
2021/06/28 04:55:41;;;;;;;14.03;12.73;;;19.10;99.90;;;;;;5093413;28;20684;-72
2021/06/28 04:58:07;;;;;;;12.23;11.23;;;19.20;99.90;;;;;;5082382;28;20197;-72
2021/06/28 05:00:32;;;;;;;13.30;12.10;;;19.20;99.90;;;;;;5076242;28;20172;-73
2021/06/28 05:02:58;;;;;;;14.20;12.90;;;19.30;99.90;;;;;;5095274;28;20207;-72
2021/06/28 05:05:24;;;;;;;13.03;11.90;;;19.30;99.90;;;;;;5093598;28;20286;-72
2021/06/28 05:07:50;;;;;;;13.23;12.03;;;19.30;99.90;;;;;;5095301;28;20173;-72
2021/06/28 05:10:19;;;;;;;13.53;12.33;;;19.40;99.90;;;;;;5097924;28;20467;-73
2021/06/28 05:12:45;;;;;;;14.15;12.85;;;19.40;99.90;;;;;;5082784;28;20414;-72
2021/06/28 05:15:12;;;;;;;13.70;12.40;;;19.50;99.90;;;;;;5092937;28;20831;-71
2021/06/28 05:17:38;;;;;;;13.80;12.60;;;19.60;99.90;;;;;;5096717;28;20177;-72
2021/06/28 05:20:05;;;;;;;13.70;12.40;;;19.60;99.90;;;;;;5096751;28;20419;-72
2021/06/28 05:22:31;;;;;;;13.50;12.20;;;19.70;99.90;;;;;;5092149;28;20457;-73
2021/06/28 05:24:59;;;;;;;13.60;12.40;;;19.70;99.90;;;;;;5085945;28;20537;-72
2021/06/28 05:27:29;;;;;;;13.50;12.23;;;19.80;99.90;;;;;;5091911;28;20528;-72
2021/06/28 05:29:55;;;;;;;13.63;12.13;;;19.80;99.90;;;;;;5078247;28;20531;-72
2021/06/28 05:32:32;;;;;;;14.37;13.10;;;19.90;99.90;;;;;;5076585;28;20444;-72
2021/06/28 05:34:57;;;;;;;13.97;12.77;;;19.90;99.90;;;;;;5089443;28;20850;-72
2021/06/28 05:37:23;;;;;;;16.17;14.47;;;20.00;99.90;;;;;;5097998;28;20486;-72
2021/06/28 05:39:48;;;;;;;17.93;16.30;;;20.10;99.90;;;;;;5083177;28;20216;-72
2021/06/28 05:42:19;;;;;;;15.00;13.47;;;20.20;99.90;;;;;;5076134;28;20623;-71
2021/06/28 05:44:44;;;;;;;12.40;11.30;;;20.30;99.90;;;;;;5076943;28;20197;-71
2021/06/28 05:47:11;;;;;;;14.63;13.30;;;20.40;99.90;;;;;;5077304;28;20430;-73
2021/06/28 05:49:37;;;;;;;13.90;12.70;;;20.50;99.90;;;;;;5083011;28;20173;-71
2021/06/28 05:52:06;;;;;;;14.90;13.50;;;20.60;99.90;;;;;;5097410;28;20451;-72
2021/06/28 05:54:32;;;;;;;14.20;12.20;;;20.70;99.90;;;;;;5097765;28;20169;-72
2021/06/28 05:56:58;;;;;;;14.10;12.70;;;20.80;99.90;;;;;;5097068;28;20446;-73
2021/06/28 05:59:23;;;;;;;13.17;12.07;;;20.90;99.90;;;;;;5095509;28;20328;-72
2021/06/28 06:01:49;;;;;;;14.07;12.87;;;20.90;99.90;;;;;;5095693;28;20177;-72
2021/06/28 06:04:17;;;;;;;13.53;12.07;;;21.00;99.90;;;;;;5096900;28;20653;-72
2021/06/28 06:06:43;;;;;;;12.17;10.67;;;21.00;99.90;;;;;;5098019;28;20280;-73
2021/06/28 06:09:09;;;;;;;12.03;10.83;;;21.10;99.90;;;;;;5098993;28;20443;-73
2021/06/28 06:11:38;;;;;;;12.23;11.03;;;21.10;99.90;;;;;;5111424;28;20449;-73
2021/06/28 06:14:07;;;;;;;13.57;12.37;;;21.20;99.90;;;;;;5105140;28;20414;-71
2021/06/28 06:16:33;;;;;;;13.73;12.40;;;21.20;99.90;;;;;;5096391;28;20434;-72
2021/06/28 06:18:58;;;;;;;12.70;11.40;;;21.30;99.90;;;;;;5097608;28;20461;-72
2021/06/28 06:21:24;;;;;;;11.90;10.83;;;21.40;99.90;;;;;;5090701;28;20178;-73
2021/06/28 06:23:50;;;;;;;12.93;11.67;;;21.40;99.90;;;;;;5077371;28;20586;-73
2021/06/28 06:26:17;;;;;;;11.90;10.80;;;21.50;99.90;;;;;;5084915;28;20189;-72
2021/06/28 06:28:43;;;;;;;13.90;12.70;;;21.60;99.90;;;;;;5098094;28;20415;-72
2021/06/28 06:31:09;;;;;;;15.00;13.40;;;21.70;99.90;;;;;;5081671;28;20431;-72
2021/06/28 06:33:36;;;;;;;13.53;12.33;;;21.70;99.90;;;;;;5080137;28;20189;-72
2021/06/28 06:36:02;;;;;;;13.63;12.53;;;21.70;99.90;;;;;;5095239;28;20213;-72
2021/06/28 06:38:28;;;;;;;13.70;12.43;;;21.80;99.90;;;;;;5088219;28;20423;-73
2021/06/28 06:40:53;;;;;;;11.30;10.40;;;21.80;99.90;;;;;;5082787;28;20530;-72
2021/06/28 06:43:19;;;;;;;11.93;10.73;;;21.90;99.90;;;;;;5077904;28;20177;-73
2021/06/28 06:45:45;;;;;;;11.07;10.07;;;22.00;99.90;;;;;;5077635;28;20213;-73
2021/06/28 06:48:11;;;;;;;12.97;11.83;;;22.10;99.90;;;;;;5076822;28;20434;-73
2021/06/28 06:50:38;;;;;;;12.30;11.20;;;22.20;99.90;;;;;;5078044;28;20906;-72
2021/06/28 06:53:04;;;;;;;14.63;13.30;;;22.20;99.90;;;;;;5076024;28;20412;-72
2021/06/28 06:55:29;;;;;;;15.00;13.60;;;22.30;99.90;;;;;;5076101;28;20423;-72
2021/06/28 06:57:55;;;;;;;12.87;11.80;;;22.30;99.90;;;;;;5085382;28;20212;-72
2021/06/28 07:00:21;;;;;;;13.30;11.90;;;22.40;99.90;;;;;;5097022;28;20176;-73
2021/06/28 07:02:48;;;;;;;15.20;13.87;;;22.40;99.90;;;;;;5093312;28;20263;-73
2021/06/28 07:05:15;;;;;;;14.10;12.80;;;22.50;99.90;;;;;;5094687;28;20490;-72
2021/06/28 07:07:41;;;;;;;13.90;12.70;;;22.60;99.90;;;;;;5094504;28;20411;-72
2021/06/28 07:10:09;;;;;;;12.50;11.40;;;22.70;99.90;;;;;;5094806;28;20444;-72
2021/06/28 07:12:35;;;;;;;12.77;11.57;;;22.80;99.90;;;;;;5093269;28;20441;-72
2021/06/28 07:15:01;;;;;;;12.60;11.33;;;22.90;99.90;;;;;;5095192;28;20438;-72
2021/06/28 07:17:26;;;;;;;12.20;11.20;;;23.00;99.90;;;;;;5095941;28;20173;-72
2021/06/28 07:19:52;;;;;;;11.90;10.90;;;23.10;99.90;;;;;;5095218;28;20183;-73
2021/06/28 07:22:17;;;;;;;12.23;11.03;;;23.20;99.90;;;;;;5092611;28;20192;-73
2021/06/28 07:24:44;;;;;;;11.27;10.27;;;23.30;99.90;;;;;;5093861;28;20211;-73
2021/06/28 07:27:10;;;;;;;12.93;11.83;;;23.40;99.90;;;;;;5094232;28;20579;-72
2021/06/28 07:29:35;;;;;;;13.33;12.23;;;23.50;99.90;;;;;;5094636;28;20450;-73
2021/06/28 07:32:01;;;;;;;12.83;11.73;;;23.60;99.90;;;;;;5093896;28;20181;-73
2021/06/28 07:34:26;;;;;;;11.37;10.47;;;23.70;99.90;;;;;;5091331;28;20210;-71
2021/06/28 07:36:52;;;;;;;13.30;12.20;;;23.80;99.90;;;;;;5093835;28;20200;-72
2021/06/28 07:39:19;;;;;;;13.00;11.80;;;23.90;99.90;;;;;;5094218;28;20221;-73
2021/06/28 07:41:44;;;;;;;12.27;11.10;;;24.00;99.90;;;;;;5093701;28;20173;-72
2021/06/28 07:44:10;;;;;;;13.10;12.10;;;24.10;99.90;;;;;;5089491;28;20495;-72
2021/06/28 07:46:36;;;;;;;11.63;10.63;;;24.20;99.90;;;;;;5074188;28;20217;-73
2021/06/28 07:49:04;;;;;;;11.80;10.70;;;24.30;99.90;;;;;;5074638;28;20240;-73
2021/06/28 07:51:35;;;;;;;11.27;10.27;;;24.40;99.90;;;;;;5073668;28;20512;-73
2021/06/28 07:54:13;;;;;;;10.37;9.67;;;24.50;99.90;;;;;;5074481;28;20879;-73
2021/06/28 07:56:39;;;;;;;11.40;10.30;;;24.60;99.90;;;;;;5073336;28;20831;-73
2021/06/28 07:59:05;;;;;;;10.97;9.97;;;24.70;99.90;;;;;;5082309;28;20493;-73
2021/06/28 08:01:31;;;;;;;11.60;10.70;;;24.70;99.90;;;;;;5078328;28;20601;-73
2021/06/28 08:04:01;;;;;;;11.17;10.20;;;24.70;99.90;;;;;;5078218;28;20479;-73
2021/06/28 08:06:30;;;;;;;12.40;11.20;;;24.70;99.90;;;;;;5080155;28;20197;-73
2021/06/28 08:08:56;;;;;;;10.87;9.90;;;24.80;99.90;;;;;;5076171;28;20403;-73
2021/06/28 08:11:24;;;;;;;11.13;10.03;;;24.80;99.90;;;;;;5073566;28;20434;-73
2021/06/28 08:13:52;;;;;;;10.17;9.17;;;24.90;99.90;;;;;;5074021;28;20239;-73
2021/06/28 08:16:19;;;;;;;11.47;10.50;;;24.90;99.90;;;;;;5075303;28;20950;-73
2021/06/28 08:18:47;;;;;;;10.33;9.43;;;24.90;99.90;;;;;;5074262;28;20420;-74
2021/06/28 08:21:13;;;;;;;10.13;9.37;;;25.10;99.90;;;;;;5073724;28;20462;-73
2021/06/28 08:23:39;;;;;;;10.10;9.20;;;25.30;99.90;;;;;;5074239;28;20964;-73
2021/06/28 08:26:06;;;;;;;9.00;8.30;;;25.40;99.90;;;;;;5078795;28;20196;-74
2021/06/28 08:28:31;;;;;;;9.30;8.60;;;25.50;99.90;;;;;;5074950;28;20180;-73
2021/06/28 08:30:57;;;;;;;9.33;8.53;;;25.50;99.90;;;;;;5073592;28;20404;-73
2021/06/28 08:33:22;;;;;;;9.90;9.10;;;25.50;99.90;;;;;;5073348;28;20165;-73
2021/06/28 08:35:48;;;;;;;10.20;9.33;;;25.60;99.90;;;;;;5073429;28;20205;-73
2021/06/28 08:38:14;;;;;;;10.83;9.40;;;25.60;99.90;;;;;;5084966;28;20184;-74
2021/06/28 08:40:40;;;;;;;10.07;9.20;;;25.60;99.90;;;;;;5092637;28;20555;-74
2021/06/28 08:43:07;;;;;;;9.20;8.50;;;25.70;99.90;;;;;;5091518;28;20169;-73
2021/06/28 08:45:38;;;;;;;9.83;9.03;;;25.80;99.90;;;;;;5095105;28;20487;-73
2021/06/28 08:48:05;;;;;;;9.77;8.97;;;25.80;99.90;;;;;;5093777;28;20427;-73
2021/06/28 08:50:32;;;;;;;10.17;9.13;;;25.90;99.90;;;;;;5095214;28;20434;-73
2021/06/28 08:52:58;;;;;;;10.80;9.97;;;26.00;99.90;;;;;;5094989;28;20514;-72
2021/06/28 08:55:24;;;;;;;9.03;8.33;;;26.10;99.90;;;;;;5094903;28;20835;-72
2021/06/28 08:57:49;;;;;;;9.73;9.00;;;26.10;99.90;;;;;;5096362;28;20184;-72
2021/06/28 09:00:16;;;;;;;7.83;7.20;;;26.20;99.90;;;;;;5095409;28;20260;-74
2021/06/28 09:02:43;;;;;;;7.37;6.80;;;26.10;99.50;;;;;;5097099;28;20233;-71
2021/06/28 09:05:11;;;;;;;12.90;7.10;;;26.20;99.10;;;;;;5095910;28;20477;-72
2021/06/28 09:07:36;;;;;;;6.53;5.93;;;26.40;98.60;;;;;;5095487;28;20426;-73
2021/06/28 09:10:03;;;;;;;7.40;6.80;;;26.50;98.10;;;;;;5097554;28;20741;-73
2021/06/28 09:12:28;;;;;;;7.10;6.50;;;26.70;97.80;;;;;;5096759;28;20530;-72
2021/06/28 09:14:58;;;;;;;7.30;6.60;;;26.90;97.50;;;;;;5097657;28;20412;-72
2021/06/28 09:17:35;;;;;;;7.20;6.60;;;27.10;97.20;;;;;;5096135;28;20242;-72
2021/06/28 09:20:29;;;;;;;6.97;6.40;;;27.30;96.90;;;;;;5077358;28;20403;-73
2021/06/28 09:22:55;;;;;;;6.80;6.30;;;27.30;96.30;;;;;;5054543;28;20902;-73
2021/06/28 09:25:36;;;;;;;6.80;6.30;;;27.30;95.80;;;;;;5056684;28;20320;-73
2021/06/28 09:28:04;;;;;;;6.23;5.70;;;27.00;95.80;;;;;;5076922;28;20181;-73
2021/06/28 09:30:30;;;;;;;5.80;5.40;;;27.10;96.00;;;;;;5062537;28;20423;-74
2021/06/28 09:33:02;;;;;;;5.40;5.00;;;27.20;95.40;;;;;;5074578;28;20420;-73
2021/06/28 09:35:35;;;;;;;5.90;5.50;;;27.40;94.80;;;;;;5075146;28;20489;-71
2021/06/28 09:38:07;;;;;;;5.70;5.30;;;27.50;94.40;;;;;;5075076;28;20405;-72
2021/06/28 09:40:34;;;;;;;6.00;5.43;;;27.60;94.20;;;;;;5071882;28;20442;-72
2021/06/28 09:43:20;;;;;;;7.17;6.63;;;27.70;94.40;;;;;;5076121;28;20415;-73
2021/06/28 09:45:47;;;;;;;6.70;6.20;;;27.60;94.40;;;;;;5075289;28;20435;-72
2021/06/28 09:48:30;;;;;;;6.80;6.20;;;27.70;94.40;;;;;;5075952;28;20430;-72
2021/06/28 09:51:19;;;;;;;6.97;6.47;;;27.60;94.30;;;;;;5073324;28;20480;-73
2021/06/28 09:53:47;;;;;;;6.80;6.20;;;27.30;94.60;;;;;;5083433;28;20423;-72
2021/06/28 09:56:31;;;;;;;7.80;6.30;;;27.40;95.00;;;;;;5073841;28;20843;-72
2021/06/28 09:58:57;;;;;;;6.77;6.27;;;27.40;95.00;;;;;;5075065;28;20451;-72
2021/06/28 10:01:27;;;;;;;6.63;6.13;;;27.50;94.80;;;;;;5086286;28;20418;-72
2021/06/28 10:03:55;;;;;;;6.70;6.20;;;27.80;94.60;;;;;;5095881;28;20247;-72
2021/06/28 10:06:31;;;;;;;7.37;6.77;;;28.00;94.40;;;;;;5097103;28;20470;-73
2021/06/28 10:09:09;;;;;;;7.20;6.60;;;28.20;93.90;;;;;;5098528;28;20490;-74
2021/06/28 10:11:49;;;;;;;7.17;6.57;;;28.20;93.90;;;;;;5098375;28;20491;-75
2021/06/28 10:14:21;;;;;;;7.10;6.50;;;28.40;94.00;;;;;;5101104;28;20759;-75
2021/06/28 10:16:47;;;;;;;7.27;6.77;;;28.50;94.00;;;;;;5099300;28;20438;-73
2021/06/28 10:19:21;;;;;;;7.50;6.90;;;28.60;93.90;;;;;;5097104;28;20439;-74
2021/06/28 10:21:52;;;;;;;6.13;5.73;;;28.70;93.70;;;;;;5095799;28;20172;-74
2021/06/28 10:24:21;;;;;;;6.63;6.13;;;28.80;92.80;;;;;;5098818;28;20894;-75
2021/06/28 10:26:47;;;;;;;6.70;6.10;;;28.80;92.40;;;;;;5099910;28;20962;-75
2021/06/28 10:29:17;;;;;;;6.63;6.17;;;28.90;92.50;;;;;;5099197;28;20407;-74
2021/06/28 10:31:43;;;;;;;6.57;6.03;;;28.90;92.30;;;;;;5095618;28;20434;-75
2021/06/28 10:34:16;;;;;;;7.40;6.90;;;28.90;92.30;;;;;;5100121;28;20482;-74
2021/06/28 10:36:42;;;;;;;7.00;6.50;;;28.80;92.40;;;;;;5099497;28;20982;-75
2021/06/28 10:39:10;;;;;;;6.57;6.17;;;28.80;92.60;;;;;;5098137;28;20449;-76
2021/06/28 10:41:41;;;;;;;7.00;6.30;;;28.70;93.20;;;;;;5096252;28;20605;-74
2021/06/28 10:44:10;;;;;;;7.73;7.07;;;28.70;93.00;;;;;;5094719;28;20498;-73
2021/06/28 10:46:37;;;;;;;8.10;7.50;;;28.60;93.10;;;;;;5095652;28;20427;-73
2021/06/28 10:49:05;;;;;;;7.60;7.10;;;28.60;92.90;;;;;;5096276;28;20738;-73
2021/06/28 10:51:49;;;;;;;8.07;7.47;;;28.40;93.10;;;;;;5094135;28;20468;-73
2021/06/28 10:54:32;;;;;;;7.90;7.33;;;28.30;93.40;;;;;;5095507;28;20442;-73
2021/06/28 10:56:58;;;;;;;7.50;6.90;;;28.10;93.50;;;;;;5094659;28;20549;-73
2021/06/28 10:59:26;;;;;;;7.63;7.10;;;28.10;93.80;;;;;;5095240;28;20946;-73
2021/06/28 11:01:56;;;;;;;8.10;7.40;;;28.00;94.00;;;;;;5080240;28;20412;-73
2021/06/28 11:04:24;;;;;;;8.37;7.77;;;28.00;93.90;;;;;;5074457;28;20971;-73
2021/06/28 11:06:59;;;;;;;8.60;7.80;;;28.10;94.00;;;;;;5073466;28;20811;-73
2021/06/28 11:09:39;;;;;;;8.37;7.70;;;27.90;94.40;;;;;;5075670;28;20384;-73
2021/06/28 11:12:32;;;;;;;8.50;7.90;;;28.00;94.60;;;;;;5084622;28;20450;-72
2021/06/28 11:15:31;;;;;;;8.50;7.70;;;28.00;94.70;;;;;;5095343;28;20451;-73
2021/06/28 11:17:57;;;;;;;8.73;8.13;;;28.10;94.80;;;;;;5055298;28;20420;-72
2021/06/28 11:20:27;;;;;;;8.30;7.50;;;28.10;94.90;;;;;;5072751;28;21488;-72
2021/06/28 11:22:53;;;;;;;8.90;8.20;;;28.10;94.50;;;;;;5071958;28;20836;-72
2021/06/28 11:25:22;;;;;;;7.57;7.07;;;28.10;94.50;;;;;;5074053;28;20459;-72
2021/06/28 11:27:56;;;;;;;7.90;7.40;;;28.00;94.60;;;;;;5084456;28;20189;-73
2021/06/28 11:30:25;;;;;;;8.00;7.40;;;27.90;94.70;;;;;;5080025;28;20418;-73
2021/06/28 11:33:06;;;;;;;7.40;6.90;;;27.70;95.50;;;;;;5070871;28;20446;-73
2021/06/28 11:35:40;;;;;;;8.83;8.00;;;27.70;95.60;;;;;;5072135;28;20428;-73
2021/06/28 11:38:27;;;;;;;8.27;7.57;;;27.60;96.20;;;;;;5072109;28;20885;-72
2021/06/28 11:41:00;;;;;;;8.10;7.50;;;27.40;96.80;;;;;;5071277;28;20778;-73
2021/06/28 11:43:41;;;;;;;7.97;7.37;;;27.30;97.10;;;;;;5069514;28;20396;-72
2021/06/28 11:46:27;;;;;;;8.07;7.47;;;27.20;97.80;;;;;;5071222;28;20473;-73
2021/06/28 11:48:57;;;;;;;8.20;7.60;;;27.10;98.00;;;;;;5055076;28;20431;-72
2021/06/28 11:51:25;;;;;;;8.70;8.07;;;27.10;98.60;;;;;;5051993;28;20408;-72
2021/06/28 11:53:58;;;;;;;9.60;8.90;;;26.90;99.20;;;;;;5065792;28;20450;-72
2021/06/28 11:56:53;;;;;;;8.37;7.77;;;26.90;99.80;;;;;;5073568;28;20428;-72
2021/06/28 11:59:21;;;;;;;7.97;7.37;;;26.80;99.90;;;;;;5074882;28;20875;-73
2021/06/28 12:01:50;;;;;;;8.35;7.65;;;26.80;99.90;;;;;;5072613;28;20469;-73
2021/06/28 12:04:30;;;;;;;8.67;8.07;;;26.90;99.90;;;;;;5073586;28;20193;-72
2021/06/28 12:06:56;;;;;;;8.93;8.13;;;27.00;99.90;;;;;;5074854;28;20435;-73
2021/06/28 12:09:24;;;;;;;8.60;7.82;;;27.00;99.90;;;;;;5073426;28;20452;-72
2021/06/28 12:11:57;;;;;;;8.50;7.80;;;27.10;99.90;;;;;;5072451;28;20604;-72
2021/06/28 12:15:03;;;;;;;8.83;8.13;;;27.10;99.90;;;;;;5073458;28;20461;-73
2021/06/28 12:17:30;;;;;;;9.20;8.40;;;27.10;99.90;;;;;;5073350;28;20505;-73
2021/06/28 12:20:06;;;;;;;9.30;8.20;;;27.10;99.90;;;;;;5073584;28;20407;-73
2021/06/28 12:22:38;;;;;;;8.17;7.57;;;27.00;99.90;;;;;;5073508;28;20788;-72
2021/06/28 12:25:15;;;;;;;7.40;6.87;;;27.00;99.90;;;;;;5073454;28;20458;-73
2021/06/28 12:27:43;;;;;;;6.93;6.23;;;26.90;99.70;;;;;;5089123;28;20453;-73
2021/06/28 12:30:14;;;;;;;6.40;5.97;;;26.90;99.40;;;;;;5073745;28;20396;-74
2021/06/28 12:32:52;;;;;;;6.23;5.63;;;26.80;98.80;;;;;;5062127;28;20400;-73
2021/06/28 12:35:22;;;;;;;5.77;5.10;;;26.90;98.60;;;;;;5073560;28;20473;-72
2021/06/28 12:37:51;;;;;;;6.00;5.50;;;26.90;97.10;;;;;;5074858;28;20893;-72
2021/06/28 12:40:32;;;;;;;4.97;4.60;;;26.90;96.70;;;;;;5095542;28;20522;-71